sensor_id;sensor_type;location;lat;lon;timestamp;pressure;altitude;pressure_sealevel;temperature;humidity
46836;BME280;32573;51.290;6.926;2023-09-18T00:02:22;99309.03;;;21.53;100.00
46836;BME280;32573;51.290;6.926;2023-09-18T00:04:52;99299.28;;;21.52;100.00
46836;BME280;32573;51.290;6.926;2023-09-18T00:07:20;99299.34;;;21.50;100.00
46836;BME280;32573;51.290;6.926;2023-09-18T00:09:49;99295.84;;;21.48;100.00
46836;BME280;32573;51.290;6.926;2023-09-18T00:12:18;99289.69;;;21.46;100.00
46836;BME280;32573;51.290;6.926;2023-09-18T00:14:48;99288.88;;;21.44;100.00
46836;BME280;32573;51.290;6.926;2023-09-18T00:17:17;99287.13;;;21.43;100.00
46836;BME280;32573;51.290;6.926;2023-09-18T00:19:47;99289.84;;;21.42;100.00
46836;BME280;32573;51.290;6.926;2023-09-18T00:22:16;99281.91;;;21.40;100.00
46836;BME280;32573;51.290;6.926;2023-09-18T00:24:45;99273.94;;;21.39;100.00
46836;BME280;32573;51.290;6.926;2023-09-18T00:27:13;99277.50;;;21.38;100.00
46836;BME280;32573;51.290;6.926;2023-09-18T00:29:43;99263.34;;;21.36;100.00
46836;BME280;32573;51.290;6.926;2023-09-18T00:32:11;99258.13;;;21.32;100.00
46836;BME280;32573;51.290;6.926;2023-09-18T00:34:40;99252.81;;;21.32;100.00
46836;BME280;32573;51.290;6.926;2023-09-18T00:37:10;99249.31;;;21.30;100.00
46836;BME280;32573;51.290;6.926;2023-09-18T00:39:41;99237.84;;;21.28;100.00
46836;BME280;32573;51.290;6.926;2023-09-18T00:42:10;99241.44;;;21.27;100.00
46836;BME280;32573;51.290;6.926;2023-09-18T00:44:40;99233.56;;;21.24;100.00
46836;BME280;32573;51.290;6.926;2023-09-18T00:47:10;99230.06;;;21.22;100.00
46836;BME280;32573;51.290;6.926;2023-09-18T00:49:40;99230.97;;;21.21;100.00
46836;BME280;32573;51.290;6.926;2023-09-18T00:52:11;99233.69;;;21.20;100.00
46836;BME280;32573;51.290;6.926;2023-09-18T00:54:40;99227.53;;;21.18;100.00
46836;BME280;32573;51.290;6.926;2023-09-18T00:57:10;99215.19;;;21.15;100.00
46836;BME280;32573;51.290;6.926;2023-09-18T00:59:39;99220.53;;;21.14;100.00
46836;BME280;32573;51.290;6.926;2023-09-18T01:02:08;99215.28;;;21.12;100.00
46836;BME280;32573;51.290;6.926;2023-09-18T01:04:37;99210.88;;;21.11;100.00
46836;BME280;32573;51.290;6.926;2023-09-18T01:07:12;99202.06;;;21.09;100.00
46836;BME280;32573;51.290;6.926;2023-09-18T01:09:42;99198.59;;;21.07;100.00
46836;BME280;32573;51.290;6.926;2023-09-18T01:12:17;99208.34;;;21.06;100.00
46836;BME280;32573;51.290;6.926;2023-09-18T01:14:54;99221.72;;;21.05;100.00
46836;BME280;32573;51.290;6.926;2023-09-18T01:17:26;99220.88;;;21.03;100.00
46836;BME280;32573;51.290;6.926;2023-09-18T01:19:54;99208.53;;;21.00;100.00
46836;BME280;32573;51.290;6.926;2023-09-18T01:22:24;99215.66;;;21.00;100.00
46836;BME280;32573;51.290;6.926;2023-09-18T01:24:54;99205.13;;;20.97;100.00
46836;BME280;32573;51.290;6.926;2023-09-18T01:27:23;99204.28;;;20.95;100.00
46836;BME280;32573;51.290;6.926;2023-09-18T01:29:52;99197.19;;;20.94;100.00
46836;BME280;32573;51.290;6.926;2023-09-18T01:32:24;99193.72;;;20.92;100.00
46836;BME280;32573;51.290;6.926;2023-09-18T01:34:56;99191.13;;;20.90;100.00
46836;BME280;32573;51.290;6.926;2023-09-18T01:37:26;99185.81;;;20.88;100.00
46836;BME280;32573;51.290;6.926;2023-09-18T01:39:57;99185.00;;;20.86;100.00
46836;BME280;32573;51.290;6.926;2023-09-18T01:42:27;99175.25;;;20.87;100.00
46836;BME280;32573;51.290;6.926;2023-09-18T01:44:56;99170.78;;;20.87;100.00
46836;BME280;32573;51.290;6.926;2023-09-18T01:47:25;99176.16;;;20.86;100.00
46836;BME280;32573;51.290;6.926;2023-09-18T01:49:54;99169.88;;;20.88;100.00
46836;BME280;32573;51.290;6.926;2023-09-18T01:52:23;99165.47;;;20.87;100.00
46836;BME280;32573;51.290;6.926;2023-09-18T01:54:51;99162.75;;;20.89;100.00
46836;BME280;32573;51.290;6.926;2023-09-18T01:57:21;99153.03;;;20.88;100.00
46836;BME280;32573;51.290;6.926;2023-09-18T01:59:50;99156.56;;;20.88;100.00
46836;BME280;32573;51.290;6.926;2023-09-18T02:02:19;99161.88;;;20.88;100.00
46836;BME280;32573;51.290;6.926;2023-09-18T02:04:52;99157.44;;;20.89;100.00
46836;BME280;32573;51.290;6.926;2023-09-18T02:07:34;99153.00;;;20.89;100.00
46836;BME280;32573;51.290;6.926;2023-09-18T02:10:04;99154.69;;;20.92;100.00
46836;BME280;32573;51.290;6.926;2023-09-18T02:12:36;99154.63;;;20.94;100.00
46836;BME280;32573;51.290;6.926;2023-09-18T02:15:06;99148.44;;;20.93;100.00
46836;BME280;32573;51.290;6.926;2023-09-18T02:17:37;99148.41;;;20.95;100.00
46836;BME280;32573;51.290;6.926;2023-09-18T02:20:07;99146.56;;;20.97;100.00
46836;BME280;32573;51.290;6.926;2023-09-18T02:22:39;99121.72;;;20.96;100.00
46836;BME280;32573;51.290;6.926;2023-09-18T02:25:08;99122.56;;;20.98;100.00
46836;BME280;32573;51.290;6.926;2023-09-18T02:27:38;99116.38;;;20.98;100.00
46836;BME280;32573;51.290;6.926;2023-09-18T02:30:07;99115.44;;;20.99;100.00
46836;BME280;32573;51.290;6.926;2023-09-18T02:32:38;99111.88;;;21.00;100.00
46836;BME280;32573;51.290;6.926;2023-09-18T02:35:07;99104.72;;;21.02;100.00
46836;BME280;32573;51.290;6.926;2023-09-18T02:37:35;99097.53;;;21.04;100.00
46836;BME280;32573;51.290;6.926;2023-09-18T02:40:05;99092.13;;;21.07;100.00
46836;BME280;32573;51.290;6.926;2023-09-18T02:42:35;99085.84;;;21.09;100.00
46836;BME280;32573;51.290;6.926;2023-09-18T02:45:06;99083.13;;;21.11;100.00
46836;BME280;32573;51.290;6.926;2023-09-18T02:47:35;99123.88;;;21.13;100.00
46836;BME280;32573;51.290;6.926;2023-09-18T02:50:05;99123.75;;;21.16;100.00
46836;BME280;32573;51.290;6.926;2023-09-18T02:52:34;99122.75;;;21.20;100.00
46836;BME280;32573;51.290;6.926;2023-09-18T02:55:03;99108.44;;;21.24;100.00
46836;BME280;32573;51.290;6.926;2023-09-18T02:57:32;99091.41;;;21.28;100.00
46836;BME280;32573;51.290;6.926;2023-09-18T03:00:01;99093.06;;;21.32;100.00
46836;BME280;32573;51.290;6.926;2023-09-18T03:02:32;99084.94;;;21.37;100.00
46836;BME280;32573;51.290;6.926;2023-09-18T03:05:01;99080.38;;;21.41;100.00
46836;BME280;32573;51.290;6.926;2023-09-18T03:07:30;99077.69;;;21.42;100.00
46836;BME280;32573;51.290;6.926;2023-09-18T03:09:58;99074.03;;;21.45;100.00
46836;BME280;32573;51.290;6.926;2023-09-18T03:12:27;99074.88;;;21.47;100.00
46836;BME280;32573;51.290;6.926;2023-09-18T03:14:56;99062.41;;;21.47;100.00
46836;BME280;32573;51.290;6.926;2023-09-18T03:17:24;99054.34;;;21.49;100.00
46836;BME280;32573;51.290;6.926;2023-09-18T03:19:55;99046.38;;;21.49;100.00
46836;BME280;32573;51.290;6.926;2023-09-18T03:22:23;99038.38;;;21.49;100.00
46836;BME280;32573;51.290;6.926;2023-09-18T03:24:53;99042.81;;;21.50;100.00
46836;BME280;32573;51.290;6.926;2023-09-18T03:27:21;99037.47;;;21.50;100.00
46836;BME280;32573;51.290;6.926;2023-09-18T03:29:56;99039.19;;;21.51;100.00
46836;BME280;32573;51.290;6.926;2023-09-18T03:32:25;99032.97;;;21.52;100.00
46836;BME280;32573;51.290;6.926;2023-09-18T03:34:55;99031.16;;;21.52;100.00
46836;BME280;32573;51.290;6.926;2023-09-18T03:37:23;99023.19;;;21.52;100.00
46836;BME280;32573;51.290;6.926;2023-09-18T03:39:52;99022.25;;;21.53;100.00
46836;BME280;32573;51.290;6.926;2023-09-18T03:42:21;99028.44;;;21.54;100.00
46836;BME280;32573;51.290;6.926;2023-09-18T03:44:49;99024.88;;;21.55;100.00
46836;BME280;32573;51.290;6.926;2023-09-18T03:47:18;99014.22;;;21.55;100.00
46836;BME280;32573;51.290;6.926;2023-09-18T03:49:46;99010.69;;;21.54;100.00
46836;BME280;32573;51.290;6.926;2023-09-18T03:52:16;99012.44;;;21.54;100.00
46836;BME280;32573;51.290;6.926;2023-09-18T03:54:45;99003.56;;;21.55;100.00
46836;BME280;32573;51.290;6.926;2023-09-18T03:57:13;98992.91;;;21.55;100.00
46836;BME280;32573;51.290;6.926;2023-09-18T03:59:42;99000.88;;;21.55;100.00
46836;BME280;32573;51.290;6.926;2023-09-18T04:02:11;98999.94;;;21.56;100.00
46836;BME280;32573;51.290;6.926;2023-09-18T04:04:39;99016.78;;;21.57;100.00
46836;BME280;32573;51.290;6.926;2023-09-18T04:07:08;99013.22;;;21.58;100.00
46836;BME280;32573;51.290;6.926;2023-09-18T04:09:38;99020.34;;;21.57;100.00
46836;BME280;32573;51.290;6.926;2023-09-18T04:12:07;99001.72;;;21.57;100.00
46836;BME280;32573;51.290;6.926;2023-09-18T04:14:35;98991.88;;;21.59;100.00
46836;BME280;32573;51.290;6.926;2023-09-18T04:17:04;98994.53;;;21.59;100.00
46836;BME280;32573;51.290;6.926;2023-09-18T04:19:33;98995.41;;;21.60;100.00
46836;BME280;32573;51.290;6.926;2023-09-18T04:22:02;99017.56;;;21.60;100.00
46836;BME280;32573;51.290;6.926;2023-09-18T04:24:30;99022.91;;;21.60;100.00
46836;BME280;32573;51.290;6.926;2023-09-18T04:27:01;99017.56;;;21.60;100.00
46836;BME280;32573;51.290;6.926;2023-09-18T04:29:29;99017.56;;;21.60;100.00
46836;BME280;32573;51.290;6.926;2023-09-18T04:31:58;99009.59;;;21.60;100.00
46836;BME280;32573;51.290;6.926;2023-09-18T04:34:27;99001.59;;;21.60;100.00
46836;BME280;32573;51.290;6.926;2023-09-18T04:36:56;99004.31;;;21.59;100.00
46836;BME280;32573;51.290;6.926;2023-09-18T04:39:25;98999.06;;;21.57;100.00
46836;BME280;32573;51.290;6.926;2023-09-18T04:41:53;98997.22;;;21.59;100.00
46836;BME280;32573;51.290;6.926;2023-09-18T04:44:23;98997.22;;;21.59;100.00
46836;BME280;32573;51.290;6.926;2023-09-18T04:46:52;99015.84;;;21.59;100.00
46836;BME280;32573;51.290;6.926;2023-09-18T04:49:21;99013.22;;;21.58;100.00
46836;BME280;32573;51.290;6.926;2023-09-18T04:51:51;99022.13;;;21.57;100.00
46836;BME280;32573;51.290;6.926;2023-09-18T04:54:20;99015.94;;;21.56;100.00
46836;BME280;32573;51.290;6.926;2023-09-18T04:56:48;99008.03;;;21.54;100.00
46836;BME280;32573;51.290;6.926;2023-09-18T04:59:17;99023.09;;;21.54;100.00
46836;BME280;32573;51.290;6.926;2023-09-18T05:01:47;99023.09;;;21.54;100.00
46836;BME280;32573;51.290;6.926;2023-09-18T05:04:15;99031.16;;;21.52;100.00
46836;BME280;32573;51.290;6.926;2023-09-18T05:06:46;99015.22;;;21.51;100.00
46836;BME280;32573;51.290;6.926;2023-09-18T05:09:14;99025.88;;;21.51;100.00
46836;BME280;32573;51.290;6.926;2023-09-18T05:11:43;99042.81;;;21.50;100.00
46836;BME280;32573;51.290;6.926;2023-09-18T05:14:11;99038.38;;;21.49;100.00
46836;BME280;32573;51.290;6.926;2023-09-18T05:16:43;99035.72;;;21.49;100.00
46836;BME280;32573;51.290;6.926;2023-09-18T05:19:16;99031.31;;;21.48;100.00
46836;BME280;32573;51.290;6.926;2023-09-18T05:21:44;99028.66;;;21.48;100.00
46836;BME280;32573;51.290;6.926;2023-09-18T05:24:14;99021.59;;;21.47;100.00
46836;BME280;32573;51.290;6.926;2023-09-18T05:26:43;99024.28;;;21.47;100.00
46836;BME280;32573;51.290;6.926;2023-09-18T05:29:11;99026.94;;;21.47;100.00
46836;BME280;32573;51.290;6.926;2023-09-18T05:31:40;99026.13;;;21.45;100.00
46836;BME280;32573;51.290;6.926;2023-09-18T05:34:08;99028.78;;;21.45;100.00
46836;BME280;32573;51.290;6.926;2023-09-18T05:36:38;99025.19;;;21.46;100.00
46836;BME280;32573;51.290;6.926;2023-09-18T05:39:07;99014.59;;;21.44;100.00
46836;BME280;32573;51.290;6.926;2023-09-18T05:41:37;99011.03;;;21.44;100.00
46836;BME280;32573;51.290;6.926;2023-09-18T05:44:06;99010.19;;;21.43;100.00
46836;BME280;32573;51.290;6.926;2023-09-18T05:46:36;99013.69;;;21.44;100.00
46836;BME280;32573;51.290;6.926;2023-09-18T05:49:05;99012.91;;;21.42;100.00
46836;BME280;32573;51.290;6.926;2023-09-18T05:51:34;99023.56;;;21.42;100.00
46836;BME280;32573;51.290;6.926;2023-09-18T05:54:04;99042.19;;;21.42;100.00
46836;BME280;32573;51.290;6.926;2023-09-18T05:56:33;99051.09;;;21.41;100.00
46836;BME280;32573;51.290;6.926;2023-09-18T05:59:02;99057.34;;;21.40;100.00
46836;BME280;32573;51.290;6.926;2023-09-18T06:01:30;99046.63;;;21.41;100.00
46836;BME280;32573;51.290;6.926;2023-09-18T06:04:00;99049.28;;;21.41;100.00
46836;BME280;32573;51.290;6.926;2023-09-18T06:06:31;99039.53;;;21.42;100.00
46836;BME280;32573;51.290;6.926;2023-09-18T06:08:59;99038.66;;;21.41;100.00
46836;BME280;32573;51.290;6.926;2023-09-18T06:11:29;99042.19;;;21.42;100.00
46836;BME280;32573;51.290;6.926;2023-09-18T06:13:58;99055.53;;;21.42;100.00
46836;BME280;32573;51.290;6.926;2023-09-18T06:16:26;99065.22;;;21.43;100.00
46836;BME280;32573;51.290;6.926;2023-09-18T06:18:55;99048.31;;;21.44;100.00
46836;BME280;32573;51.290;6.926;2023-09-18T06:21:23;99050.06;;;21.45;100.00
46836;BME280;32573;51.290;6.926;2023-09-18T06:23:52;99050.94;;;21.45;100.00
46836;BME280;32573;51.290;6.926;2023-09-18T06:26:20;99064.22;;;21.47;100.00
46836;BME280;32573;51.290;6.926;2023-09-18T06:28:50;99084.59;;;21.48;100.00
46836;BME280;32573;51.290;6.926;2023-09-18T06:31:23;99067.66;;;21.49;100.00
46836;BME280;32573;51.290;6.926;2023-09-18T06:33:51;99071.16;;;21.51;100.00
46836;BME280;32573;51.290;6.926;2023-09-18T06:36:20;99056.94;;;21.52;100.00
46836;BME280;32573;51.290;6.926;2023-09-18T06:38:49;99053.34;;;21.53;100.00
46836;BME280;32573;51.290;6.926;2023-09-18T06:41:17;99047.16;;;21.52;100.00
46836;BME280;32573;51.290;6.926;2023-09-18T06:43:46;99065.72;;;21.54;100.00
46836;BME280;32573;51.290;6.926;2023-09-18T06:46:16;99071.03;;;21.54;100.00
46836;BME280;32573;51.290;6.926;2023-09-18T06:48:47;99071.97;;;21.53;100.00
46836;BME280;32573;51.290;6.926;2023-09-18T06:51:18;99081.69;;;21.54;100.00
46836;BME280;32573;51.290;6.926;2023-09-18T06:54:07;99079.03;;;21.54;100.00
46836;BME280;32573;51.290;6.926;2023-09-18T06:56:36;99088.78;;;21.55;100.00
46836;BME280;32573;51.290;6.926;2023-09-18T06:59:04;99088.78;;;21.55;100.00
46836;BME280;32573;51.290;6.926;2023-09-18T07:01:34;99093.25;;;21.54;100.00
46836;BME280;32573;51.290;6.926;2023-09-18T07:04:03;99088.78;;;21.55;100.00
46836;BME280;32573;51.290;6.926;2023-09-18T07:06:32;99093.25;;;21.54;100.00
46836;BME280;32573;51.290;6.926;2023-09-18T07:09:01;99091.38;;;21.57;100.00
46836;BME280;32573;51.290;6.926;2023-09-18T07:11:31;99085.19;;;21.56;100.00
46836;BME280;32573;51.290;6.926;2023-09-18T07:13:59;99095.84;;;21.56;100.00
46836;BME280;32573;51.290;6.926;2023-09-18T07:16:34;99098.50;;;21.56;100.00
46836;BME280;32573;51.290;6.926;2023-09-18T07:19:03;99097.59;;;21.57;100.00
46836;BME280;32573;51.290;6.926;2023-09-18T07:21:32;99103.75;;;21.59;100.00
46836;BME280;32573;51.290;6.926;2023-09-18T07:24:02;99103.66;;;21.61;100.00
46836;BME280;32573;51.290;6.926;2023-09-18T07:26:31;99104.53;;;21.61;100.00
46836;BME280;32573;51.290;6.926;2023-09-18T07:28:59;99111.63;;;21.62;100.00
46836;BME280;32573;51.290;6.926;2023-09-18T07:31:29;99118.56;;;21.66;100.00
46836;BME280;32573;51.290;6.926;2023-09-18T07:33:59;99123.91;;;21.66;100.00
46836;BME280;32573;51.290;6.926;2023-09-18T07:36:27;99127.38;;;21.68;100.00
46836;BME280;32573;51.290;6.926;2023-09-18T07:38:56;99128.22;;;21.70;100.00
46836;BME280;32573;51.290;6.926;2023-09-18T07:41:24;99127.28;;;21.71;100.00
46836;BME280;32573;51.290;6.926;2023-09-18T07:43:53;99118.38;;;21.72;100.00
46836;BME280;32573;51.290;6.926;2023-09-18T07:46:21;99127.19;;;21.74;100.00
46836;BME280;32573;51.290;6.926;2023-09-18T07:48:50;99141.38;;;21.75;100.00
46836;BME280;32573;51.290;6.926;2023-09-18T07:51:20;99137.84;;;21.74;100.00
46836;BME280;32573;51.290;6.926;2023-09-18T07:53:48;99141.31;;;21.76;100.00
46836;BME280;32573;51.290;6.926;2023-09-18T07:56:17;99138.63;;;21.76;100.00
46836;BME280;32573;51.290;6.926;2023-09-18T07:58:46;99138.59;;;21.78;100.00
46836;BME280;32573;51.290;6.926;2023-09-18T08:01:15;99160.78;;;21.79;100.00
46836;BME280;32573;51.290;6.926;2023-09-18T08:03:44;99165.19;;;21.80;100.00
46836;BME280;32573;51.290;6.926;2023-09-18T08:06:13;99144.72;;;21.82;100.00
46836;BME280;32573;51.290;6.926;2023-09-18T08:08:47;99140.25;;;21.82;100.00
46836;BME280;32573;51.290;6.926;2023-09-18T08:11:15;99139.38;;;21.82;100.00
46836;BME280;32573;51.290;6.926;2023-09-18T08:13:44;99144.72;;;21.82;100.00
46836;BME280;32573;51.290;6.926;2023-09-18T08:16:12;99168.56;;;21.85;100.00
46836;BME280;32573;51.290;6.926;2023-09-18T08:18:41;99160.59;;;21.85;100.00
46836;BME280;32573;51.290;6.926;2023-09-18T08:21:10;99167.63;;;21.86;100.00
46836;BME280;32573;51.290;6.926;2023-09-18T08:23:41;99169.44;;;21.85;100.00
46836;BME280;32573;51.290;6.926;2023-09-18T08:26:11;99165.91;;;21.85;100.00
46836;BME280;32573;51.290;6.926;2023-09-18T08:28:39;99162.38;;;21.84;100.00
46836;BME280;32573;51.290;6.926;2023-09-18T08:31:10;99158.81;;;21.84;100.00
46836;BME280;32573;51.290;6.926;2023-09-18T08:33:39;99161.47;;;21.84;100.00
46836;BME280;32573;51.290;6.926;2023-09-18T08:36:08;99170.38;;;21.84;100.00
46836;BME280;32573;51.290;6.926;2023-09-18T08:38:36;99161.44;;;21.85;100.00
46836;BME280;32573;51.290;6.926;2023-09-18T08:41:05;99149.00;;;21.86;100.00
46836;BME280;32573;51.290;6.926;2023-09-18T08:43:38;99165.81;;;21.88;100.00
46836;BME280;32573;51.290;6.926;2023-09-18T08:46:09;99171.13;;;21.88;100.00
46836;BME280;32573;51.290;6.926;2023-09-18T08:48:38;99163.13;;;21.88;100.00
46836;BME280;32573;51.290;6.926;2023-09-18T08:51:08;99165.81;;;21.88;100.00
46836;BME280;32573;51.290;6.926;2023-09-18T08:53:37;99162.19;;;21.89;100.00
46836;BME280;32573;51.290;6.926;2023-09-18T08:56:06;99163.97;;;21.90;100.00
46836;BME280;32573;51.290;6.926;2023-09-18T08:58:37;99179.00;;;21.91;100.00
46836;BME280;32573;51.290;6.926;2023-09-18T09:01:09;99171.00;;;21.91;100.00
46836;BME280;32573;51.290;6.926;2023-09-18T09:03:38;99176.34;;;21.91;100.00
46836;BME280;32573;51.290;6.926;2023-09-18T09:06:08;99178.00;;;21.95;100.00
46836;BME280;32573;51.290;6.926;2023-09-18T09:08:36;99174.34;;;21.97;100.00
46836;BME280;32573;51.290;6.926;2023-09-18T09:11:05;99172.53;;;21.98;100.00
46836;BME280;32573;51.290;6.926;2023-09-18T09:13:33;99176.00;;;22.02;100.00
46836;BME280;32573;51.290;6.926;2023-09-18T09:16:14;99160.75;;;22.05;100.00
46836;BME280;32573;51.290;6.926;2023-09-18T09:18:49;99168.63;;;22.08;100.00
46836;BME280;32573;51.290;6.926;2023-09-18T09:21:19;99166.78;;;22.10;100.00
46836;BME280;32573;51.290;6.926;2023-09-18T09:23:49;99174.66;;;22.13;100.00
46836;BME280;32573;51.290;6.926;2023-09-18T09:26:20;99161.28;;;22.15;100.00
46836;BME280;32573;51.290;6.926;2023-09-18T09:28:49;99159.44;;;22.17;100.00
46836;BME280;32573;51.290;6.926;2023-09-18T09:31:27;99162.03;;;22.18;100.00
46836;BME280;32573;51.290;6.926;2023-09-18T09:33:56;99166.50;;;22.20;100.00
46836;BME280;32573;51.290;6.926;2023-09-18T09:36:26;99171.84;;;22.20;100.00
46836;BME280;32573;51.290;6.926;2023-09-18T09:38:55;99173.56;;;22.21;100.00
46836;BME280;32573;51.290;6.926;2023-09-18T09:41:25;99187.72;;;22.23;100.00
46836;BME280;32573;51.290;6.926;2023-09-18T09:43:55;99178.78;;;22.24;100.00
46836;BME280;32573;51.290;6.926;2023-09-18T09:46:26;99164.53;;;22.25;100.00
46836;BME280;32573;51.290;6.926;2023-09-18T09:48:59;99157.38;;;22.27;100.00
46836;BME280;32573;51.290;6.926;2023-09-18T09:51:29;99169.72;;;22.29;100.00
46836;BME280;32573;51.290;6.926;2023-09-18T09:53:58;99166.94;;;22.32;100.00
46836;BME280;32573;51.290;6.926;2023-09-18T09:56:41;99174.84;;;22.34;100.00
46836;BME280;32573;51.290;6.926;2023-09-18T09:59:11;99181.94;;;22.35;100.00
46836;BME280;32573;51.290;6.926;2023-09-18T10:01:41;99178.34;;;22.36;100.00
46836;BME280;32573;51.290;6.926;2023-09-18T10:04:13;99180.09;;;22.37;100.00
46836;BME280;32573;51.290;6.926;2023-09-18T10:06:50;99178.25;;;22.39;100.00
46836;BME280;32573;51.290;6.926;2023-09-18T10:09:20;99171.03;;;22.41;100.00
46836;BME280;32573;51.290;6.926;2023-09-18T10:11:51;99166.59;;;22.42;100.00
46836;BME280;32573;51.290;6.926;2023-09-18T10:14:22;99165.69;;;22.41;100.00
46836;BME280;32573;51.290;6.926;2023-09-18T10:17:04;99154.13;;;22.42;100.00
46836;BME280;32573;51.290;6.926;2023-09-18T10:19:39;99154.94;;;22.44;100.00
46836;BME280;32573;51.290;6.926;2023-09-18T10:22:15;99156.66;;;22.45;100.00
46836;BME280;32573;51.290;6.926;2023-09-18T10:24:50;99148.53;;;22.48;100.00
46836;BME280;32573;51.290;6.926;2023-09-18T10:27:19;99149.38;;;22.50;100.00
46836;BME280;32573;51.290;6.926;2023-09-18T10:29:49;99153.72;;;22.53;100.00
46836;BME280;32573;51.290;6.926;2023-09-18T10:32:21;99151.88;;;22.55;100.00
46836;BME280;32573;51.290;6.926;2023-09-18T10:34:50;99145.53;;;22.57;100.00
46836;BME280;32573;51.290;6.926;2023-09-18T10:37:19;99140.94;;;22.61;100.00
46836;BME280;32573;51.290;6.926;2023-09-18T10:39:49;99149.72;;;22.65;100.00
46836;BME280;32573;51.290;6.926;2023-09-18T10:42:18;99154.94;;;22.68;100.00
46836;BME280;32573;51.290;6.926;2023-09-18T10:44:49;99150.41;;;22.70;100.00
46836;BME280;32573;51.290;6.926;2023-09-18T10:47:20;99160.03;;;22.74;100.00
46836;BME280;32573;51.290;6.926;2023-09-18T10:49:49;99157.25;;;22.77;100.00
46836;BME280;32573;51.290;6.926;2023-09-18T10:52:18;99158.88;;;22.81;100.00
46836;BME280;32573;51.290;6.926;2023-09-18T10:54:46;99147.19;;;22.83;100.00
46836;BME280;32573;51.290;6.926;2023-09-18T10:57:15;99168.38;;;22.88;100.00
46836;BME280;32573;51.290;6.926;2023-09-18T10:59:44;99162.91;;;22.91;100.00
46836;BME280;32573;51.290;6.926;2023-09-18T11:02:14;99147.72;;;22.93;100.00
46836;BME280;32573;51.290;6.926;2023-09-18T11:04:45;99158.19;;;22.99;100.00
46836;BME280;32573;51.290;6.926;2023-09-18T11:07:20;99171.38;;;23.04;100.00
46836;BME280;32573;51.290;6.926;2023-09-18T11:09:49;99163.16;;;23.09;100.00
46836;BME280;32573;51.290;6.926;2023-09-18T11:12:17;99164.78;;;23.13;100.00
46836;BME280;32573;51.290;6.926;2023-09-18T11:14:48;99161.06;;;23.17;100.00
46836;BME280;32573;51.290;6.926;2023-09-18T11:17:30;99154.66;;;23.21;100.00
46836;BME280;32573;51.290;6.926;2023-09-18T11:20:08;99162.44;;;23.27;100.00
46836;BME280;32573;51.290;6.926;2023-09-18T11:22:40;99170.19;;;23.33;100.00
46836;BME280;32573;51.290;6.926;2023-09-18T11:25:39;99158.47;;;23.37;100.00
46836;BME280;32573;51.290;6.926;2023-09-18T11:28:13;99158.31;;;23.40;100.00
46836;BME280;32573;51.290;6.926;2023-09-18T11:30:50;99152.84;;;23.43;100.00
46836;BME280;32573;51.290;6.926;2023-09-18T11:33:36;99150.94;;;23.47;100.00
46836;BME280;32573;51.290;6.926;2023-09-18T11:36:07;99136.59;;;23.50;100.00
46836;BME280;32573;51.290;6.926;2023-09-18T11:38:51;99141.66;;;23.56;100.00
46836;BME280;32573;51.290;6.926;2023-09-18T11:41:26;99157.50;;;23.60;100.00
46836;BME280;32573;51.290;6.926;2023-09-18T11:46:58;99156.13;;;23.72;100.00
46836;BME280;32573;51.290;6.926;2023-09-18T11:49:27;99154.06;;;23.79;100.00
46836;BME280;32573;51.290;6.926;2023-09-18T11:52:00;99149.47;;;23.82;100.00
46836;BME280;32573;51.290;6.926;2023-09-18T11:54:32;99149.47;;;23.82;100.00
46836;BME280;32573;51.290;6.926;2023-09-18T11:57:04;99147.69;;;23.83;100.00
46836;BME280;32573;51.290;6.926;2023-09-18T11:59:34;99142.41;;;23.81;100.00
46836;BME280;32573;51.290;6.926;2023-09-18T12:02:04;99142.41;;;23.81;100.00
46836;BME280;32573;51.290;6.926;2023-09-18T12:04:35;99146.00;;;23.80;100.00
46836;BME280;32573;51.290;6.926;2023-09-18T12:07:05;99132.63;;;23.80;100.00
46836;BME280;32573;51.290;6.926;2023-09-18T12:09:35;99124.56;;;23.82;100.00
46836;BME280;32573;51.290;6.926;2023-09-18T12:12:06;99128.78;;;23.87;100.00
46836;BME280;32573;51.290;6.926;2023-09-18T12:14:35;99128.56;;;23.92;100.00
46836;BME280;32573;51.290;6.926;2023-09-18T12:17:05;99143.63;;;23.95;100.00
46836;BME280;32573;51.290;6.926;2023-09-18T12:19:35;99132.78;;;23.98;100.00
46836;BME280;32573;51.290;6.926;2023-09-18T12:22:04;99122.75;;;24.03;100.00
46836;BME280;32573;51.290;6.926;2023-09-18T12:24:33;99134.09;;;24.08;100.00
46836;BME280;32573;51.290;6.926;2023-09-18T12:27:02;99142.88;;;24.11;100.00
46836;BME280;32573;51.290;6.926;2023-09-18T12:29:32;99140.88;;;24.17;100.00
46836;BME280;32573;51.290;6.926;2023-09-18T12:32:00;99140.53;;;24.24;100.00
46836;BME280;32573;51.290;6.926;2023-09-18T12:34:33;99140.19;;;24.32;100.00
46836;BME280;32573;51.290;6.926;2023-09-18T12:37:04;99142.50;;;24.40;100.00
46836;BME280;32573;51.290;6.926;2023-09-18T12:39:34;99137.69;;;24.48;100.00
46836;BME280;32573;51.290;6.926;2023-09-18T12:42:03;99121.38;;;24.54;100.00
46836;BME280;32573;51.290;6.926;2023-09-18T12:44:32;99122.03;;;24.59;100.00
46836;BME280;32573;51.290;6.926;2023-09-18T12:47:01;99115.56;;;24.63;100.00
46836;BME280;32573;51.290;6.926;2023-09-18T12:49:31;99112.78;;;24.66;100.00
46836;BME280;32573;51.290;6.926;2023-09-18T12:52:01;99109.84;;;24.71;100.00
46836;BME280;32573;51.290;6.926;2023-09-18T12:54:39;99119.44;;;24.77;100.00
46836;BME280;32573;51.290;6.926;2023-09-18T12:57:10;99106.69;;;24.82;100.00
46836;BME280;32573;51.290;6.926;2023-09-18T12:59:38;99105.47;;;24.89;100.00
46836;BME280;32573;51.290;6.926;2023-09-18T13:02:07;99098.06;;;24.94;100.00
46836;BME280;32573;51.290;6.926;2023-09-18T13:04:37;99098.63;;;25.01;100.00
46836;BME280;32573;51.290;6.926;2023-09-18T13:07:13;99095.72;;;25.05;100.00
46836;BME280;32573;51.290;6.926;2023-09-18T13:09:43;99101.06;;;25.05;100.00